createdAt,value
2018-01-20T00:00:35.664Z,13.07
2018-01-20T00:03:04.071Z,13.02
2018-01-20T00:05:32.207Z,14.80
2018-01-20T00:07:59.776Z,13.55
2018-01-20T00:10:39.400Z,14.20
2018-01-20T00:13:06.949Z,13.62
2018-01-20T00:15:34.521Z,12.10
2018-01-20T00:18:03.950Z,13.98
2018-01-20T00:20:32.263Z,12.90
2018-01-20T00:22:59.789Z,13.55
2018-01-20T00:25:27.537Z,13.50
2018-01-20T00:27:55.174Z,13.52
2018-01-20T00:30:22.833Z,14.27
2018-01-20T00:32:50.390Z,13.57
2018-01-20T00:35:18.068Z,13.98
2018-01-20T00:37:45.598Z,14.27
2018-01-20T00:40:13.139Z,14.63
2018-01-20T00:42:41.438Z,13.45
2018-01-20T00:45:08.983Z,13.85
2018-01-20T00:47:36.534Z,13.80
2018-01-20T00:50:04.842Z,14.20
2018-01-20T00:52:32.381Z,14.15
2018-01-20T00:54:59.963Z,13.55
2018-01-20T00:57:27.506Z,14.05
2018-01-20T00:59:55.036Z,13.40
2018-01-20T01:02:22.631Z,14.02
2018-01-20T01:04:50.206Z,13.93
2018-01-20T01:07:17.878Z,14.50
2018-01-20T01:09:45.452Z,14.65
2018-01-20T01:12:12.989Z,13.73
2018-01-20T01:14:40.552Z,14.45
2018-01-20T01:17:08.086Z,12.85
2018-01-20T01:19:35.650Z,14.57
2018-01-20T01:22:03.192Z,13.40
2018-01-20T01:24:31.607Z,14.57
2018-01-20T01:26:59.269Z,12.77
2018-01-20T01:29:26.800Z,13.00
2018-01-20T01:31:55.104Z,13.68
2018-01-20T01:34:22.612Z,13.55
2018-01-20T01:36:50.217Z,14.52
2018-01-20T01:39:17.741Z,14.40
2018-01-20T01:41:45.339Z,14.50
2018-01-20T01:44:12.867Z,14.00
2018-01-20T01:46:40.404Z,14.13
2018-01-20T01:49:08.057Z,14.68
2018-01-20T01:51:36.920Z,14.68
2018-01-20T01:54:04.432Z,14.60
2018-01-20T01:56:32.666Z,13.50
2018-01-20T01:59:01.186Z,14.20
2018-01-20T02:01:28.762Z,13.95
2018-01-20T02:03:56.244Z,15.20
2018-01-20T02:06:23.805Z,15.32
2018-01-20T02:08:51.328Z,13.75
2018-01-20T02:11:18.872Z,14.30
2018-01-20T02:13:46.385Z,14.20
2018-01-20T02:16:13.958Z,14.90
2018-01-20T02:18:41.511Z,15.73
2018-01-20T02:21:09.031Z,14.27
2018-01-20T02:23:36.582Z,13.95
2018-01-20T02:26:04.108Z,15.60
2018-01-20T02:28:31.635Z,15.23
2018-01-20T02:30:59.920Z,16.23
2018-01-20T02:33:28.568Z,15.45
2018-01-20T02:35:56.782Z,16.45
2018-01-20T02:38:24.484Z,16.40
2018-01-20T02:40:52.502Z,16.87
2018-01-20T02:43:20.407Z,15.63
2018-01-20T02:45:48.022Z,14.75
2018-01-20T02:48:15.636Z,16.27
2018-01-20T02:50:43.183Z,15.75
2018-01-20T02:53:10.706Z,15.75
2018-01-20T02:55:38.229Z,16.27
2018-01-20T02:58:05.762Z,16.02
2018-01-20T03:00:33.326Z,16.17
2018-01-20T03:03:00.846Z,16.85
2018-01-20T03:05:28.356Z,16.20
2018-01-20T03:07:55.880Z,17.30
2018-01-20T03:10:24.172Z,16.23
2018-01-20T03:12:51.738Z,16.42
2018-01-20T03:15:19.299Z,16.12
2018-01-20T03:17:46.812Z,17.92
2018-01-20T03:20:14.335Z,17.92
2018-01-20T03:22:41.843Z,17.10
2018-01-20T03:25:09.387Z,17.23
2018-01-20T03:27:37.000Z,18.73
2018-01-20T03:30:04.530Z,17.87
2018-01-20T03:32:32.839Z,17.02
2018-01-20T03:35:00.394Z,18.15
2018-01-20T03:37:27.960Z,17.65
2018-01-20T03:39:55.514Z,18.50
2018-01-20T03:42:23.040Z,19.20
2018-01-20T03:44:50.636Z,19.35
2018-01-20T03:47:18.212Z,18.05
2018-01-20T03:49:45.750Z,18.48
2018-01-20T03:52:14.047Z,18.40
2018-01-20T03:54:41.574Z,18.37
2018-01-20T03:57:09.079Z,18.15
2018-01-20T03:59:36.618Z,19.37
2018-01-20T04:02:04.154Z,18.05
2018-01-20T04:04:32.568Z,19.55
2018-01-20T04:07:00.101Z,18.73
2018-01-20T04:09:28.392Z,18.23
2018-01-20T04:11:55.923Z,19.65
2018-01-20T04:14:23.445Z,18.42
2018-01-20T04:16:51.080Z,18.20
2018-01-20T04:19:18.638Z,17.98
2018-01-20T04:21:46.211Z,17.60
2018-01-20T04:24:14.024Z,18.17
2018-01-20T04:26:41.571Z,18.95
2018-01-20T04:29:09.084Z,17.50
2018-01-20T04:31:36.650Z,18.85
2018-01-20T04:34:05.270Z,17.37
2018-01-20T04:36:33.634Z,19.25
2018-01-20T04:39:01.152Z,17.45
2018-01-20T04:41:29.555Z,18.60
2018-01-20T04:43:57.102Z,18.12
2018-01-20T04:46:24.703Z,17.00
2018-01-20T04:48:52.240Z,18.12
2018-01-20T04:51:19.783Z,18.40
2018-01-20T04:53:48.088Z,18.33
2018-01-20T04:56:15.627Z,17.98
2018-01-20T04:58:43.196Z,20.02
2018-01-20T05:01:10.740Z,18.92
2018-01-20T05:03:39.039Z,17.98
2018-01-20T05:06:06.605Z,17.60
2018-01-20T05:08:34.168Z,18.27
2018-01-20T05:11:01.688Z,19.10
2018-01-20T05:13:30.085Z,18.10
2018-01-20T05:15:57.603Z,18.98
2018-01-20T05:18:25.144Z,17.52
2018-01-20T05:20:52.718Z,18.62
2018-01-20T05:23:20.280Z,18.42
2018-01-20T05:25:49.311Z,17.05
2018-01-20T05:28:18.661Z,17.55
2018-01-20T05:30:47.572Z,17.87
2018-01-20T05:33:15.129Z,17.02
2018-01-20T05:35:42.701Z,16.17
2018-01-20T05:38:10.316Z,16.50
2018-01-20T05:40:37.829Z,16.45
2018-01-20T05:43:05.431Z,16.25
2018-01-20T05:45:32.973Z,15.73
2018-01-20T05:48:01.373Z,13.38
2018-01-20T05:50:28.889Z,13.73
2018-01-20T05:52:56.496Z,13.95
2018-01-20T05:55:24.040Z,13.57
2018-01-20T05:57:51.629Z,14.30
2018-01-20T06:00:19.175Z,14.75
2018-01-20T06:02:46.705Z,14.13
2018-01-20T06:05:15.013Z,13.52
2018-01-20T06:07:42.551Z,13.93
2018-01-20T06:10:10.938Z,13.85
2018-01-20T06:12:39.242Z,14.77
2018-01-20T06:15:06.774Z,14.60
2018-01-20T06:17:35.071Z,14.13
2018-01-20T06:20:02.616Z,14.93
2018-01-20T06:22:30.154Z,14.10
2018-01-20T06:24:57.693Z,15.30
2018-01-20T06:27:25.324Z,13.80
2018-01-20T06:29:52.867Z,14.57
2018-01-20T06:32:20.432Z,15.00
2018-01-20T06:34:47.960Z,12.80
2018-01-20T06:37:16.267Z,12.73
2018-01-20T06:39:43.800Z,13.45
2018-01-20T06:42:11.398Z,13.23
2018-01-20T06:44:39.173Z,13.40
2018-01-20T06:47:06.731Z,11.50
2018-01-20T06:49:34.282Z,13.45
2018-01-20T06:52:01.823Z,12.88
2018-01-20T06:54:29.347Z,13.82
2018-01-20T06:56:57.461Z,12.75
2018-01-20T06:59:24.985Z,13.13
2018-01-20T07:01:52.520Z,12.60
2018-01-20T07:04:20.036Z,11.65
2018-01-20T07:06:47.578Z,12.97
2018-01-20T07:09:15.200Z,13.88
2018-01-20T07:11:42.835Z,12.50
2018-01-20T07:14:10.364Z,13.10
2018-01-20T07:16:38.675Z,12.82
2018-01-20T07:19:06.186Z,12.70
2018-01-20T07:21:33.804Z,12.20
2018-01-20T07:24:01.373Z,12.67
2018-01-20T07:26:28.914Z,12.73
2018-01-20T07:28:56.426Z,13.82
2018-01-20T07:31:24.040Z,13.88
2018-01-20T07:33:51.564Z,12.27
2018-01-20T07:36:19.159Z,14.35
2018-01-20T07:38:46.679Z,12.23
2018-01-20T07:41:14.285Z,14.10
2018-01-20T07:43:41.838Z,14.55
2018-01-20T07:46:09.407Z,13.10
2018-01-20T07:48:36.964Z,15.05
2018-01-20T07:51:04.618Z,13.20
2018-01-20T07:53:32.183Z,13.75
2018-01-20T07:55:59.703Z,13.52
2018-01-20T07:58:27.242Z,13.32
2018-01-20T08:00:54.789Z,12.27
2018-01-20T08:03:22.321Z,14.18
2018-01-20T08:05:49.841Z,14.07
2018-01-20T08:08:17.453Z,12.57
2018-01-20T08:10:44.960Z,12.20
2018-01-20T08:13:12.492Z,13.00
2018-01-20T08:15:40.006Z,12.57
2018-01-20T08:18:08.315Z,13.93
2018-01-20T08:20:35.828Z,12.30
2018-01-20T08:23:03.427Z,13.98
2018-01-20T08:25:30.948Z,12.80
2018-01-20T08:27:58.485Z,14.00
2018-01-20T08:30:26.009Z,12.65
2018-01-20T08:32:53.544Z,15.27
2018-01-20T08:35:21.816Z,12.55
2018-01-20T08:37:50.117Z,13.05
2018-01-20T08:40:17.684Z,13.13
2018-01-20T08:42:45.241Z,13.50
2018-01-20T08:45:12.803Z,14.60
2018-01-20T08:47:40.364Z,13.50
2018-01-20T08:50:07.915Z,13.70
2018-01-20T08:52:36.186Z,14.10
2018-01-20T08:55:04.581Z,14.97
2018-01-20T08:57:32.143Z,14.70
2018-01-20T08:59:59.692Z,14.60
2018-01-20T09:02:27.277Z,14.13
2018-01-20T09:04:54.809Z,14.25
2018-01-20T09:07:22.416Z,14.02
2018-01-20T09:09:50.047Z,15.95
2018-01-20T09:12:17.564Z,14.10
2018-01-20T09:14:45.097Z,13.90
2018-01-20T09:17:12.640Z,15.20
2018-01-20T09:19:40.214Z,14.70
2018-01-20T09:22:07.739Z,14.95
2018-01-20T09:24:35.311Z,13.38
2018-01-20T09:27:02.989Z,14.17
2018-01-20T09:29:30.534Z,14.73
2018-01-20T09:31:58.042Z,14.43
2018-01-20T09:34:25.634Z,15.50
2018-01-20T09:36:53.927Z,13.62
2018-01-20T09:39:21.468Z,14.60
2018-01-20T09:41:49.752Z,14.00
2018-01-20T09:44:18.027Z,12.88
2018-01-20T09:46:46.361Z,13.33
2018-01-20T09:49:13.883Z,13.82
2018-01-20T09:51:41.459Z,13.10
2018-01-20T09:54:08.975Z,13.73
2018-01-20T09:56:37.292Z,13.70
2018-01-20T09:59:04.796Z,13.10
2018-01-20T10:01:32.316Z,14.27
2018-01-20T10:03:59.828Z,13.60
2018-01-20T10:06:27.368Z,13.10
2018-01-20T10:08:54.902Z,14.47
2018-01-20T10:11:22.426Z,13.77
2018-01-20T10:13:50.714Z,15.70
2018-01-20T10:16:18.263Z,14.50
2018-01-20T10:18:46.547Z,14.40
2018-01-20T10:21:14.867Z,14.63
2018-01-20T10:23:42.396Z,14.70
2018-01-20T10:26:09.925Z,13.30
2018-01-20T10:28:37.513Z,13.67
2018-01-20T10:31:05.080Z,14.00
2018-01-20T10:33:32.627Z,12.53
2018-01-20T10:36:01.466Z,14.27
2018-01-20T10:38:28.996Z,13.60
2018-01-20T10:40:56.503Z,12.53
2018-01-20T10:43:24.028Z,12.17
2018-01-20T10:45:51.546Z,12.70
2018-01-20T10:48:19.834Z,12.20
2018-01-20T10:50:48.107Z,14.03
2018-01-20T10:53:16.400Z,12.40
2018-01-20T10:55:43.914Z,12.63
2018-01-20T10:58:11.534Z,13.03
2018-01-20T11:00:39.075Z,11.20
2018-01-20T11:03:06.685Z,12.47
2018-01-20T11:05:34.191Z,13.53
2018-01-20T11:08:02.547Z,12.50
2018-01-20T11:10:30.057Z,11.60
2018-01-20T11:12:57.615Z,12.70
2018-01-20T11:15:25.128Z,12.03
2018-01-20T11:17:52.664Z,12.90
2018-01-20T11:20:20.191Z,12.60
2018-01-20T11:22:47.703Z,11.50
2018-01-20T11:25:15.244Z,12.00
2018-01-20T11:27:42.760Z,12.23
2018-01-20T11:30:10.291Z,12.30
2018-01-20T11:32:37.891Z,13.10
2018-01-20T11:35:05.462Z,11.93
2018-01-20T11:37:33.011Z,13.63
2018-01-20T11:40:00.550Z,12.80
2018-01-20T11:42:28.882Z,12.87
2018-01-20T11:44:56.401Z,13.00
2018-01-20T11:47:23.977Z,12.30
2018-01-20T11:49:51.507Z,13.30
2018-01-20T11:52:19.880Z,12.03
2018-01-20T11:54:48.174Z,12.73
2018-01-20T11:57:15.698Z,11.83
2018-01-20T11:59:43.258Z,11.07
2018-01-20T12:02:10.825Z,13.33
2018-01-20T12:04:38.775Z,11.53
2018-01-20T12:07:06.305Z,11.50
2018-01-20T12:09:33.990Z,10.67
2018-01-20T12:12:01.504Z,11.03
2018-01-20T12:14:29.104Z,11.53
2018-01-20T12:16:56.628Z,11.53
2018-01-20T12:19:25.933Z,10.30
2018-01-20T12:21:54.221Z,10.63
2018-01-20T12:24:21.792Z,10.60
2018-01-20T12:26:49.348Z,10.47
2018-01-20T12:29:17.023Z,12.10
2018-01-20T12:31:44.582Z,12.10
2018-01-20T12:34:12.088Z,11.00
2018-01-20T12:36:39.617Z,11.50
2018-01-20T12:39:07.130Z,11.27
2018-01-20T12:41:35.429Z,10.80
2018-01-20T12:44:02.939Z,11.10
2018-01-20T12:46:30.781Z,10.70
2018-01-20T12:48:58.311Z,10.90
2018-01-20T12:51:25.878Z,8.97
2018-01-20T12:53:53.431Z,9.17
2018-01-20T12:56:21.007Z,9.83
2018-01-20T12:58:48.542Z,10.50
2018-01-20T13:01:16.116Z,10.02
2018-01-20T13:03:43.789Z,9.60
2018-01-20T13:06:12.454Z,10.40
2018-01-20T13:08:39.967Z,9.20
2018-01-20T13:11:07.534Z,9.07
2018-01-20T13:13:35.056Z,9.60
2018-01-20T13:16:02.615Z,10.77
2018-01-20T13:18:30.151Z,9.40
2018-01-20T13:20:57.733Z,9.77
2018-01-20T13:23:26.461Z,10.43
2018-01-20T13:25:54.727Z,10.73
2018-01-20T13:28:22.815Z,9.27
2018-01-20T13:30:50.835Z,9.77
2018-01-20T13:33:18.941Z,10.80
2018-01-20T13:35:48.034Z,9.70
2018-01-20T13:38:16.312Z,9.83
2018-01-20T13:40:44.453Z,10.50
2018-01-20T13:43:12.981Z,9.40
2018-01-20T13:45:40.532Z,9.13
2018-01-20T13:48:08.084Z,10.30
2018-01-20T13:50:35.586Z,9.60
2018-01-20T13:53:03.983Z,8.90
2018-01-20T13:55:32.275Z,9.30
2018-01-20T13:57:59.808Z,9.60
2018-01-20T14:00:28.147Z,9.73
2018-01-20T14:02:55.692Z,9.95
2018-01-20T14:05:23.208Z,8.70
2018-01-20T14:07:51.509Z,9.03
2018-01-20T14:10:19.062Z,8.48
2018-01-20T14:12:46.594Z,7.50
2018-01-20T14:15:14.909Z,8.73
2018-01-20T14:17:42.490Z,8.83
2018-01-20T14:20:10.023Z,8.40
2018-01-20T14:22:37.546Z,8.27
2018-01-20T14:25:05.824Z,7.07
2018-01-20T14:27:33.393Z,8.40
2018-01-20T14:30:00.948Z,8.43
2018-01-20T14:32:28.552Z,7.30
2018-01-20T14:34:56.105Z,8.10
2018-01-20T14:37:23.684Z,8.33
2018-01-20T14:39:51.227Z,8.20
2018-01-20T14:42:19.215Z,9.07
2018-01-20T14:44:46.766Z,8.17
2018-01-20T14:47:14.360Z,7.33
2018-01-20T14:49:41.988Z,8.93
2018-01-20T14:52:09.527Z,8.30
2018-01-20T14:54:37.927Z,8.40
2018-01-20T14:57:05.616Z,7.43
2018-01-20T14:59:33.216Z,7.40
2018-01-20T15:02:01.646Z,6.82
2018-01-20T15:04:29.241Z,7.90
2018-01-20T15:06:56.832Z,6.90
2018-01-20T15:09:25.126Z,6.10
2018-01-20T15:11:52.701Z,6.65
2018-01-20T15:14:20.288Z,7.37
2018-01-20T15:16:47.992Z,6.70
2018-01-20T15:19:16.399Z,7.00
2018-01-20T15:21:43.911Z,5.90
2018-01-20T15:24:11.831Z,5.67
2018-01-20T15:26:39.531Z,6.43
2018-01-20T15:29:07.060Z,6.40
2018-01-20T15:31:34.633Z,6.40
2018-01-20T15:34:02.171Z,6.17
2018-01-20T15:36:30.281Z,6.47
2018-01-20T15:38:57.851Z,6.77
2018-01-20T15:41:25.404Z,6.27
2018-01-20T15:43:52.931Z,5.72
2018-01-20T15:46:20.500Z,5.90
2018-01-20T15:48:48.009Z,6.43
2018-01-20T15:51:15.663Z,6.27
2018-01-20T15:53:43.564Z,6.00
2018-01-20T15:56:11.641Z,6.68
2018-01-20T15:58:39.159Z,6.45
2018-01-20T16:01:06.770Z,5.50
2018-01-20T16:03:34.292Z,5.43
2018-01-20T16:06:01.802Z,4.70
2018-01-20T16:08:29.477Z,5.23
2018-01-20T16:10:57.444Z,5.50
2018-01-20T16:13:25.009Z,5.87
2018-01-20T16:15:52.526Z,5.80
2018-01-20T16:18:20.079Z,5.50
2018-01-20T16:20:47.630Z,6.20
2018-01-20T16:23:15.158Z,5.90
2018-01-20T16:25:42.797Z,5.87
2018-01-20T16:28:10.360Z,6.00
2018-01-20T16:30:37.876Z,5.60
2018-01-20T16:33:05.482Z,5.97
2018-01-20T16:35:33.095Z,6.47
2018-01-20T16:38:00.640Z,6.03
2018-01-20T16:40:28.928Z,6.57
2018-01-20T16:42:56.550Z,5.45
2018-01-20T16:45:24.144Z,5.30
2018-01-20T16:47:52.488Z,5.87
2018-01-20T16:50:20.000Z,5.53
2018-01-20T16:52:47.532Z,4.87
2018-01-20T16:55:15.051Z,5.10
2018-01-20T16:57:42.599Z,5.57
2018-01-20T17:00:10.132Z,6.70
2018-01-20T17:02:37.674Z,6.60
2018-01-20T17:05:05.307Z,5.75
2018-01-20T17:07:32.859Z,6.37
2018-01-20T17:10:00.456Z,5.68
2018-01-20T17:12:28.085Z,5.37
2018-01-20T17:14:55.916Z,5.20
2018-01-20T17:17:24.230Z,5.45
2018-01-20T17:19:51.792Z,5.80
2018-01-20T17:22:19.304Z,6.30
2018-01-20T17:24:46.943Z,6.12
2018-01-20T17:27:14.488Z,5.70
2018-01-20T17:29:42.105Z,5.90
2018-01-20T17:32:10.387Z,6.00
2018-01-20T17:34:38.687Z,6.05
2018-01-20T17:37:06.203Z,5.57
2018-01-20T17:39:34.184Z,6.05
2018-01-20T17:42:01.778Z,6.07
2018-01-20T17:44:29.459Z,6.37
2018-01-20T17:46:57.705Z,6.70
2018-01-20T17:49:25.232Z,5.68
2018-01-20T17:51:52.752Z,6.95
2018-01-20T17:54:20.353Z,6.55
2018-01-20T17:56:47.977Z,6.65
2018-01-20T17:59:15.530Z,6.30
2018-01-20T18:01:43.058Z,5.50
2018-01-20T18:04:11.946Z,5.82
2018-01-20T18:06:40.417Z,7.37
2018-01-20T18:09:07.960Z,6.45
2018-01-20T18:11:35.697Z,6.80
2018-01-20T18:14:03.235Z,8.38
2018-01-20T18:16:30.800Z,7.18
2018-01-20T18:18:58.442Z,7.73
2018-01-20T18:21:26.937Z,6.20
2018-01-20T18:23:54.670Z,7.03
2018-01-20T18:26:23.556Z,6.72
2018-01-20T18:28:51.234Z,6.70
2018-01-20T18:31:19.879Z,6.65
2018-01-20T18:33:47.528Z,7.07
2018-01-20T18:36:15.083Z,7.20
2018-01-20T18:38:43.267Z,7.32
2018-01-20T18:41:11.191Z,6.50
2018-01-20T18:43:39.515Z,7.87
2018-01-20T18:46:07.056Z,7.55
2018-01-20T18:48:34.619Z,6.90
2018-01-20T18:51:02.174Z,7.00
2018-01-20T18:53:30.555Z,7.65
2018-01-20T18:55:58.089Z,6.95
2018-01-20T18:58:26.406Z,7.60
2018-01-20T19:00:54.095Z,8.35
2018-01-20T19:03:21.723Z,7.25
2018-01-20T19:05:49.290Z,7.53
2018-01-20T19:08:17.227Z,7.93
2018-01-20T19:10:45.545Z,7.85
2018-01-20T19:13:13.108Z,8.93
2018-01-20T19:15:40.663Z,9.70
2018-01-20T19:18:08.198Z,8.73
2018-01-20T19:20:35.770Z,8.55
2018-01-20T19:23:03.494Z,8.60
2018-01-20T19:25:31.022Z,8.55
2018-01-20T19:27:58.701Z,9.57
2018-01-20T19:30:26.231Z,8.83
2018-01-20T19:32:53.984Z,10.40
2018-01-20T19:35:21.495Z,10.90
2018-01-20T19:37:49.092Z,10.45
2018-01-20T19:40:17.377Z,11.20
2018-01-20T19:42:46.088Z,11.30
2018-01-20T19:45:13.623Z,10.75
2018-01-20T19:47:41.196Z,10.20
2018-01-20T19:50:09.508Z,9.60
2018-01-20T19:52:37.048Z,9.50
2018-01-20T19:55:04.844Z,9.27
2018-01-20T19:57:32.375Z,9.90
2018-01-20T19:59:59.992Z,8.18
2018-01-20T20:02:28.621Z,10.52
2018-01-20T20:04:56.486Z,9.75
2018-01-20T20:07:24.584Z,8.40
2018-01-20T20:09:52.573Z,7.90
2018-01-20T20:12:20.198Z,8.40
2018-01-20T20:14:48.717Z,8.30
2018-01-20T20:17:17.309Z,8.48
2018-01-20T20:19:46.059Z,7.80
2018-01-20T20:22:13.922Z,8.07
2018-01-20T20:24:41.998Z,7.72
2018-01-20T20:27:09.661Z,7.65
2018-01-20T20:29:37.296Z,7.73
2018-01-20T20:32:04.886Z,7.57
2018-01-20T20:34:32.431Z,7.78
2018-01-20T20:37:00.013Z,7.93
2018-01-20T20:39:27.587Z,7.20
2018-01-20T20:41:55.224Z,7.45
2018-01-20T20:44:22.800Z,7.32
2018-01-20T20:46:50.363Z,7.20
2018-01-20T20:49:18.033Z,8.03
2018-01-20T20:51:45.579Z,9.10
2018-01-20T20:54:13.110Z,7.87
2018-01-20T20:56:40.641Z,9.50
2018-01-20T20:59:08.156Z,8.20
2018-01-20T21:01:35.809Z,10.15
2018-01-20T21:04:03.346Z,11.82
2018-01-20T21:06:30.875Z,11.48
2018-01-20T21:08:58.396Z,10.80
2018-01-20T21:11:25.956Z,11.67
2018-01-20T21:13:53.486Z,12.02
2018-01-20T21:16:21.062Z,12.23
2018-01-20T21:18:48.621Z,12.67
2018-01-20T21:21:16.168Z,12.25
2018-01-20T21:23:43.769Z,12.90
2018-01-20T21:26:11.417Z,11.68
2018-01-20T21:28:39.389Z,15.20
2018-01-20T21:31:06.941Z,13.10
2018-01-20T21:33:34.497Z,12.85
2018-01-20T21:36:02.038Z,13.05
2018-01-20T21:38:30.350Z,14.95
2018-01-20T21:40:57.892Z,15.77
2018-01-20T21:43:25.432Z,13.75
2018-01-20T21:45:53.748Z,15.70
2018-01-20T21:48:21.293Z,12.80
2018-01-20T21:50:48.841Z,14.05
2018-01-20T21:53:16.420Z,13.37
2018-01-20T21:55:43.992Z,13.75
2018-01-20T21:58:11.664Z,12.80
2018-01-20T22:00:39.224Z,13.90
2018-01-20T22:03:06.869Z,13.62
2018-01-20T22:05:35.244Z,14.30
2018-01-20T22:08:02.799Z,14.37
2018-01-20T22:10:30.371Z,14.20
2018-01-20T22:12:57.926Z,13.80
2018-01-20T22:15:26.127Z,15.23
2018-01-20T22:17:53.676Z,14.10
2018-01-20T22:20:21.227Z,15.68
2018-01-20T22:22:48.776Z,15.90
2018-01-20T22:25:16.454Z,14.85
2018-01-20T22:27:43.996Z,17.83
2018-01-20T22:30:12.154Z,15.60
2018-01-20T22:32:40.475Z,17.10
2018-01-20T22:35:08.015Z,15.23
2018-01-20T22:37:36.136Z,17.05
2018-01-20T22:40:05.858Z,15.30
2018-01-20T22:42:34.208Z,16.20
2018-01-20T22:45:02.498Z,15.63
2018-01-20T22:47:30.069Z,15.80
2018-01-20T22:49:57.699Z,14.98
2018-01-20T22:52:25.297Z,15.85
2018-01-20T22:54:54.331Z,14.65
2018-01-20T22:57:21.925Z,14.93
2018-01-20T22:59:49.536Z,14.82
2018-01-20T23:02:17.878Z,17.33
2018-01-20T23:04:45.696Z,14.93
2018-01-20T23:07:13.273Z,16.90
2018-01-20T23:09:40.848Z,16.75
2018-01-20T23:12:08.412Z,15.57
2018-01-20T23:14:35.996Z,15.07
2018-01-20T23:17:03.554Z,16.50
2018-01-20T23:19:31.112Z,14.77
2018-01-20T23:21:58.659Z,13.73
2018-01-20T23:24:27.142Z,14.77
2018-01-20T23:26:54.706Z,13.30
2018-01-20T23:29:22.665Z,15.07
2018-01-20T23:31:50.228Z,14.80
2018-01-20T23:34:17.803Z,13.17
2018-01-20T23:36:45.547Z,13.27
2018-01-20T23:39:13.102Z,13.10
2018-01-20T23:41:40.664Z,13.55
2018-01-20T23:44:08.202Z,14.90
2018-01-20T23:46:35.784Z,15.13
2018-01-20T23:49:03.326Z,14.57
2018-01-20T23:51:30.870Z,14.30
2018-01-20T23:53:59.180Z,13.23
2018-01-20T23:56:26.713Z,16.85
2018-01-20T23:58:55.156Z,13.20
